Terminal Aerodrome Forecast
Issued by NWS

Home | Current Version | Previous Version | Text Only | Print | Product List | Glossary On
Versions: 1 2 3 4 5 6 7 8 9 10 11 12 13 14 15 16 17 18 19
723
FTUS43 KIND 190520
TAFLAF
TAF
KLAF 190520Z 1906/2006 31016G22KT P6SM OVC030
     FM191200 31012KT P6SM SCT015 BKN025
     FM191600 30012G20KT P6SM SCT035
     FM192000 29011KT P6SM FEW200
      AMD LTD TO CLD VIS AND WIND TIL 191400=

USA.gov is the U.S. government's official web portal to all federal, state and local government web resources and services.